Time;durP1;ratioP1;P1;durP2;ratioP2;P2;SDS_P1;SDS_P2;PMS_P1;PMS_P2;Temp;Humidity;BMP_temperature;BMP_pressure;BME280_temperature;BME280_humidity;BME280_pressure;Samples;Min_cycle;Max_cycle;Signal;HPM_P1;HPM_P2
2022/10/31 00:01:58;;;;;;;36.13;22.42;;;;;;;8.59;100.00;99412.27;4075480;84;21506;-85
2022/10/31 00:08:00;;;;;;;33.33;19.12;;;;;;;8.48;100.00;99410.41;4062076;85;21767;-88
2022/10/31 00:14:01;;;;;;;36.45;19.30;;;;;;;8.45;100.00;99416.56;4190539;82;22081;-85
2022/10/31 00:20:04;;;;;;;39.08;22.27;;;;;;;8.36;100.00;99420.84;4239910;82;21045;-85
2022/10/31 00:26:06;;;;;;;41.73;22.73;;;;;;;8.29;100.00;99418.47;4244476;82;21092;-85
2022/10/31 00:32:09;;;;;;;40.78;25.55;;;;;;;8.18;100.00;99418.16;4246756;81;21080;-84
2022/10/31 00:38:10;;;;;;;31.42;18.98;;;;;;;8.06;100.00;99414.70;4226563;82;21631;-84
2022/10/31 00:44:12;;;;;;;35.28;21.15;;;;;;;7.94;100.00;99421.79;4248441;81;21004;-84
2022/10/31 00:50:18;;;;;;;37.23;22.25;;;;;;;7.92;100.00;99424.06;4233160;82;21065;-84
2022/10/31 00:56:20;;;;;;;38.15;21.73;;;;;;;7.98;100.00;99433.61;4236425;82;20937;-83
2022/10/31 01:02:27;;;;;;;45.35;22.87;;;;;;;7.92;100.00;99431.47;4233484;82;21005;-84
2022/10/31 01:08:31;;;;;;;46.23;23.65;;;;;;;7.81;100.00;99435.82;4230921;82;20969;-84
2022/10/31 01:14:33;;;;;;;37.67;21.37;;;;;;;7.77;100.00;99433.55;4114028;82;21384;-84
2022/10/31 01:20:38;;;;;;;29.63;18.40;;;;;;;7.82;100.00;99429.22;4080722;85;21503;-84
2022/10/31 01:26:40;;;;;;;36.35;19.48;;;;;;;7.90;100.00;99426.36;4066796;85;21045;-85
2022/10/31 01:32:53;;;;;;;33.08;18.77;;;;;;;7.94;100.00;99429.97;4069815;85;22225;-84
2022/10/31 01:39:02;;;;;;;37.13;19.60;;;;;;;8.00;100.00;99420.98;4080367;84;21015;-84
2022/10/31 01:45:05;;;;;;;34.43;18.32;;;;;;;8.03;100.00;99415.40;4083441;85;21112;-84
2022/10/31 01:51:11;;;;;;;32.83;18.77;;;;;;;8.01;100.00;99407.57;4080749;85;21408;-84
2022/10/31 01:57:20;;;;;;;29.40;17.37;;;;;;;8.00;100.00;99404.63;4075924;85;21952;-84
2022/10/31 02:03:25;;;;;;;32.75;19.80;;;;;;;7.94;100.00;99410.89;4063485;85;21109;-85
2022/10/31 02:09:28;;;;;;;33.02;19.52;;;;;;;7.82;100.00;99413.67;4054868;84;21073;-85
2022/10/31 02:15:32;;;;;;;30.32;18.37;;;;;;;7.86;100.00;99421.36;4213436;82;21017;-85
2022/10/31 02:21:47;;;;;;;35.05;18.40;;;;;;;7.88;100.00;99409.55;4233109;82;21041;-85
2022/10/31 02:28:48;;;;;;;32.95;19.20;;;;;;;7.80;100.00;99408.33;4226518;82;21057;-85
2022/10/31 02:35:05;;;;;;;37.40;20.55;;;;;;;7.81;100.00;99416.16;4249394;81;20994;-85
2022/10/31 02:41:18;;;;;;;35.23;21.30;;;;;;;7.82;100.00;99419.68;4238903;82;20959;-84
2022/10/31 02:47:39;;;;;;;38.98;21.45;;;;;;;7.85;100.00;99425.80;4243827;82;21001;-84
2022/10/31 02:53:45;;;;;;;43.28;22.40;;;;;;;7.85;100.00;99437.50;4257733;82;21060;-85
2022/10/31 03:00:05;;;;;;;37.65;20.70;;;;;;;7.90;100.00;99439.99;4266424;81;72160;-84
2022/10/31 03:06:41;;;;;;;39.20;21.17;;;;;;;7.95;100.00;99441.67;4265686;81;21127;-84
2022/10/31 03:13:17;;;;;;;33.28;18.32;;;;;;;7.98;100.00;99440.98;4287705;81;21044;-85
2022/10/31 03:19:36;;;;;;;40.25;22.05;;;;;;;7.95;100.00;99443.81;4279184;81;21027;-85
2022/10/31 03:25:42;;;;;;;36.30;20.90;;;;;;;7.92;100.00;99445.87;4283716;81;21023;-85
2022/10/31 03:31:58;;;;;;;35.33;21.07;;;;;;;7.91;100.00;99455.20;4284817;81;21994;-83
2022/10/31 03:38:03;;;;;;;37.08;21.27;;;;;;;7.90;100.00;99452.82;4265626;82;21040;-84
2022/10/31 03:44:09;;;;;;;36.55;20.30;;;;;;;7.92;100.00;99458.14;4245184;81;21001;-85
2022/10/31 03:50:16;;;;;;;33.15;19.42;;;;;;;7.96;100.00;99450.06;4295320;81;21019;-84
2022/10/31 03:56:38;;;;;;;32.55;19.80;;;;;;;7.97;100.00;99449.72;4281301;81;21461;-84
2022/10/31 04:03:05;;;;;;;31.35;19.07;;;;;;;7.92;100.00;99454.05;4169933;83;22294;-85
2022/10/31 04:09:39;;;;;;;32.40;20.10;;;;;;;7.93;100.00;99448.84;4191923;82;20990;-85
2022/10/31 04:15:45;;;;;;;33.67;19.98;;;;;;;7.90;100.00;99454.98;4193310;83;20991;-84
2022/10/31 04:21:51;;;;;;;33.53;19.25;;;;;;;7.91;100.00;99453.03;4142848;84;21057;-85
2022/10/31 04:27:52;;;;;;;37.05;20.65;;;;;;;7.90;100.00;99456.34;4163019;84;21033;-85
2022/10/31 04:33:57;;;;;;;28.67;18.37;;;;;;;7.85;100.00;99453.86;4140734;84;22305;-85
2022/10/31 04:40:05;;;;;;;33.80;17.75;;;;;;;7.78;100.00;99465.13;4138140;84;21116;-85
2022/10/31 04:46:48;;;;;;;35.13;20.62;;;;;;;7.71;100.00;99460.26;4140392;84;21495;-84
2022/10/31 04:52:56;;;;;;;29.72;17.40;;;;;;;7.64;100.00;99463.35;4145928;84;21548;-84
2022/10/31 04:59:02;;;;;;;27.58;16.97;;;;;;;7.58;100.00;99459.28;4142305;84;21038;-84
2022/10/31 05:05:23;;;;;;;28.25;17.10;;;;;;;7.55;100.00;99460.74;4138935;84;21039;-84
2022/10/31 05:11:33;;;;;;;28.50;17.25;;;;;;;7.57;100.00;99461.76;4231383;82;22023;-84
2022/10/31 05:17:44;;;;;;;36.45;19.77;;;;;;;7.51;100.00;99464.50;4274133;79;20975;-84
2022/10/31 05:24:03;;;;;;;35.23;18.65;;;;;;;7.45;100.00;99469.96;4337860;81;21014;-84
2022/10/31 05:30:10;;;;;;;31.07;18.50;;;;;;;7.39;100.00;99472.70;4107629;83;20970;-84
2022/10/31 05:36:33;;;;;;;31.70;18.00;;;;;;;7.35;100.00;99484.84;4165098;84;21653;-84
2022/10/31 05:42:55;;;;;;;31.87;17.12;;;;;;;7.31;100.00;99485.27;4315858;81;21052;-84
2022/10/31 05:48:57;;;;;;;28.15;15.28;;;;;;;7.23;100.00;99489.49;4307787;81;21032;-84
2022/10/31 05:55:10;;;;;;;27.25;17.48;;;;;;;7.24;100.00;99493.80;4173594;81;21009;-85
2022/10/31 06:01:13;;;;;;;27.37;18.07;;;;;;;7.17;100.00;99502.52;4301523;81;21033;-83
2022/10/31 06:07:28;;;;;;;27.15;17.95;;;;;;;7.19;100.00;99508.98;4164241;83;21089;-85
2022/10/31 06:13:30;;;;;;;29.37;17.42;;;;;;;7.25;100.00;99519.32;4279522;81;21551;-85
2022/10/31 06:19:38;;;;;;;27.20;15.23;;;;;;;7.28;100.00;99521.95;4314750;81;21575;-85
2022/10/31 06:25:40;;;;;;;30.32;18.45;;;;;;;7.36;100.00;99528.63;4293254;81;21043;-84
2022/10/31 06:32:04;;;;;;;29.23;16.37;;;;;;;7.45;100.00;99532.61;4294608;81;20975;-85
2022/10/31 06:38:17;;;;;;;36.23;18.85;;;;;;;7.54;100.00;99534.08;4335944;81;21519;-84
2022/10/31 06:44:26;;;;;;;36.60;19.30;;;;;;;7.68;100.00;99538.61;4168612;84;21946;-85
2022/10/31 06:50:37;;;;;;;45.05;23.18;;;;;;;7.80;100.00;99538.59;4156741;83;21014;-84
2022/10/31 06:57:02;;;;;;;35.85;21.82;;;;;;;7.90;100.00;99547.67;4193217;83;21907;-84
2022/10/31 07:03:06;;;;;;;41.80;23.00;;;;;;;8.06;100.00;99545.02;4178689;83;21038;-85
2022/10/31 07:09:08;;;;;;;36.35;22.27;;;;;;;8.38;100.00;99552.80;4311746;81;20974;-85
2022/10/31 07:42:22;;;;;;;24.82;16.73;;;;;;;11.47;100.00;99555.68;4307649;83;20966;-85
2022/10/31 07:48:59;;;;;;;29.87;17.70;;;;;;;12.09;100.00;99552.37;4253386;82;21060;-85
2022/10/31 08:09:07;;;;;;;28.40;16.97;;;;;;;14.22;100.00;99555.61;4251903;84;21095;-84
2022/10/31 08:15:09;;;;;;;27.30;16.27;;;;;;;15.03;100.00;99563.66;4255898;81;21096;-85
2022/10/31 08:21:49;;;;;;;27.27;15.95;;;;;;;15.83;100.00;99555.84;4201671;82;21037;-84
2022/10/31 09:01:42;;;;;;;24.02;11.38;;;;;;;19.28;93.98;99560.30;4087928;86;20998;-86
2022/10/31 09:14:44;;;;;;;24.65;11.90;;;;;;;19.89;90.34;99560.27;4076113;86;21018;-86
2022/10/31 09:28:17;;;;;;;19.52;11.45;;;;;;;20.93;86.98;99554.48;4237535;84;21061;-85
2022/10/31 09:34:26;;;;;;;16.52;9.95;;;;;;;21.41;85.51;99558.17;4267276;81;21179;-86
2022/10/31 09:56:45;;;;;;;17.40;7.35;;;;;;;22.87;78.77;99565.08;4311370;83;20976;-86
2022/10/31 10:25:07;;;;;;;16.30;8.18;;;;;;;23.35;70.50;99560.63;4175929;83;21493;-85
2022/10/31 10:31:38;;;;;;;15.80;8.05;;;;;;;23.35;70.50;99560.63;4140433;82;21064;-85
2022/10/31 10:38:36;;;;;;;19.52;7.87;;;;;;;23.21;69.25;99553.45;4147780;82;20999;-86
2022/10/31 10:51:36;;;;;;;20.02;8.08;;;;;;;22.45;67.96;99544.74;4234796;82;22158;-85
2022/10/31 10:58:05;;;;;;;17.30;9.70;;;;;;;22.34;67.76;99546.25;4243223;82;21192;-86
2022/10/31 11:04:32;;;;;;;15.28;8.23;;;;;;;22.03;66.79;99538.94;4220559;82;21056;-85
2022/10/31 11:10:35;;;;;;;24.02;9.70;;;;;;;21.92;66.88;99537.64;4226548;82;21385;-85
2022/10/31 11:16:45;;;;;;;18.77;9.10;;;;;;;21.76;66.21;99536.26;4240503;82;21080;-85
2022/10/31 11:23:07;;;;;;;19.25;9.15;;;;;;;21.54;66.04;99533.20;4281089;80;21560;-85
2022/10/31 11:29:55;;;;;;;21.60;8.95;;;;;;;21.12;65.42;99532.22;4281368;81;21083;-85
2022/10/31 11:56:45;;;;;;;14.80;8.23;;;;;;;20.32;65.60;99520.80;4264377;81;20972;-85
2022/10/31 12:10:00;;;;;;;20.10;8.25;;;;;;;20.17;65.79;99506.37;4267477;81;20960;-85
2022/10/31 12:30:26;;;;;;;18.02;7.20;;;;;;;20.27;66.61;99499.05;4028658;86;22010;-85
2022/10/31 12:37:23;;;;;;;19.30;7.37;;;;;;;20.28;66.13;99491.50;4060412;82;21046;-85
2022/10/31 13:39:59;;;;;;;14.53;6.35;;;;;;;19.74;67.31;99467.29;4280464;83;21068;-85
2022/10/31 13:53:22;;;;;;;13.80;6.08;;;;;;;19.50;67.42;99461.56;4270836;81;21035;-85
2022/10/31 14:33:36;;;;;;;16.93;6.12;;;;;;;18.89;68.24;99444.92;4244208;81;21532;-86
2022/10/31 14:40:00;;;;;;;17.80;5.60;;;;;;;18.66;68.41;99439.50;4291703;81;21043;-85
2022/10/31 15:07:27;;;;;;;23.80;8.58;;;;;;;17.91;69.74;99439.45;4271344;81;21043;-85
2022/10/31 15:21:02;;;;;;;28.38;10.82;;;;;;;17.35;70.93;99440.59;4273590;81;21051;-86
2022/10/31 15:27:18;;;;;;;32.80;12.25;;;;;;;16.94;71.68;99441.30;4045617;85;21653;-86
2022/10/31 15:33:40;;;;;;;29.25;13.60;;;;;;;16.63;72.44;99438.16;4076598;85;21191;-86
2022/10/31 15:39:49;;;;;;;43.10;16.23;;;;;;;16.39;73.10;99436.89;4083155;85;21101;-85
2022/10/31 15:52:50;;;;;;;35.23;13.38;;;;;;;15.69;74.36;99443.48;4310155;81;22054;-85
2022/10/31 16:13:00;;;;;;;25.72;12.23;;;;;;;14.68;76.61;99462.16;4308574;81;21599;-85
2022/10/31 16:19:22;;;;;;;40.83;16.50;;;;;;;14.40;77.40;99462.89;4360914;81;20975;-85
2022/10/31 16:25:33;;;;;;;57.35;24.57;;;;;;;14.17;78.23;99465.91;4390545;80;21215;-85
2022/10/31 16:37:51;;;;;;;25.97;11.68;;;;;;;13.85;79.38;99468.31;4222212;83;21615;-85
2022/10/31 16:44:24;;;;;;;45.45;14.40;;;;;;;13.60;79.92;99470.13;4231398;82;21027;-85
2022/10/31 16:50:38;;;;;;;29.70;13.88;;;;;;;13.46;80.58;99465.91;4204138;83;21009;-84
2022/10/31 16:56:42;;;;;;;27.80;13.45;;;;;;;13.22;80.66;99475.55;4222008;83;20977;-85
2022/10/31 17:03:01;;;;;;;34.85;15.35;;;;;;;12.90;81.17;99472.29;4169343;83;20994;-84
2022/10/31 17:09:24;;;;;;;44.77;16.35;;;;;;;12.75;82.12;99477.45;4201746;83;21005;-84
2022/10/31 17:15:29;;;;;;;32.55;17.00;;;;;;;12.64;82.75;99482.24;4132353;83;21073;-84
2022/10/31 17:21:39;;;;;;;38.88;18.85;;;;;;;12.42;82.78;99480.42;4172811;83;21490;-84
2022/10/31 17:27:40;;;;;;;31.85;17.77;;;;;;;12.19;83.47;99475.66;4181687;80;21061;-84
2022/10/31 17:33:42;;;;;;;35.45;16.67;;;;;;;12.12;84.08;99476.92;4291986;81;21555;-84
2022/10/31 17:39:48;;;;;;;41.08;22.80;;;;;;;12.06;84.64;99473.50;4291281;81;21087;-84
2022/10/31 17:52:38;;;;;;;35.73;18.00;;;;;;;11.73;85.27;99478.36;4296540;80;21702;-85
2022/10/31 17:58:47;;;;;;;39.92;18.92;;;;;;;11.50;85.39;99478.98;4267713;80;20958;-84
2022/10/31 18:04:49;;;;;;;44.83;19.48;;;;;;;11.39;86.12;99475.86;4357558;81;20967;-84
2022/10/31 18:10:50;;;;;;;37.67;17.75;;;;;;;11.24;86.33;99478.98;4169518;84;21034;-85
2022/10/31 18:17:02;;;;;;;46.60;17.85;;;;;;;11.05;86.71;99473.00;4157721;83;20998;-85
2022/10/31 18:23:03;;;;;;;47.17;19.85;;;;;;;10.84;86.90;99463.03;4120738;84;21049;-84
2022/10/31 18:29:05;;;;;;;40.50;20.15;;;;;;;10.73;87.54;99470.84;4301311;81;21040;-85
2022/10/31 18:35:07;;;;;;;49.63;22.93;;;;;;;10.63;88.01;99468.72;4232643;81;20980;-84
2022/10/31 18:41:12;;;;;;;39.20;19.40;;;;;;;10.57;88.25;99463.33;4284182;81;21011;-85
2022/10/31 18:47:14;;;;;;;48.13;22.58;;;;;;;10.47;88.75;99463.91;4284603;81;21059;-84
2022/10/31 18:53:15;;;;;;;48.40;23.00;;;;;;;10.31;88.49;99467.31;4296508;81;20984;-85
2022/10/31 18:59:24;;;;;;;50.28;26.70;;;;;;;10.11;88.87;99469.28;4218029;83;20976;-84
2022/10/31 19:05:26;;;;;;;53.13;26.17;;;;;;;10.01;89.56;99472.55;4285784;81;20960;-84
2022/10/31 19:11:33;;;;;;;52.48;27.20;;;;;;;9.99;89.94;99461.77;4286190;81;20963;-84
2022/10/31 19:17:34;;;;;;;55.45;27.40;;;;;;;9.92;90.05;99455.56;4304064;81;21110;-84
2022/10/31 19:23:43;;;;;;;47.67;25.45;;;;;;;9.71;90.15;99459.20;4279243;81;21027;-84
2022/10/31 19:29:45;;;;;;;45.23;21.97;;;;;;;9.64;90.76;99460.99;4228863;81;22040;-84
2022/10/31 19:35:46;;;;;;;39.58;20.48;;;;;;;9.58;91.20;99449.56;4221666;82;21151;-84
2022/10/31 19:41:48;;;;;;;41.48;21.68;;;;;;;9.60;92.29;99451.94;4244210;82;21041;-84
2022/10/31 19:47:51;;;;;;;39.45;21.20;;;;;;;9.51;91.36;99451.56;4241712;82;21040;-84
2022/10/31 19:53:56;;;;;;;47.40;22.62;;;;;;;9.44;91.71;99461.54;4258888;83;20974;-84
2022/10/31 19:59:58;;;;;;;49.75;26.73;;;;;;;9.30;91.43;99452.42;4211637;82;21002;-84
2022/10/31 20:06:03;;;;;;;51.28;26.55;;;;;;;9.12;91.78;99446.33;4256854;82;21013;-84
2022/10/31 20:12:05;;;;;;;51.42;27.85;;;;;;;9.05;92.32;99442.08;4139844;84;21582;-84
2022/10/31 20:18:08;;;;;;;51.85;25.92;;;;;;;8.90;92.43;99428.65;4157286;84;21499;-84
2022/10/31 20:24:10;;;;;;;44.67;24.67;;;;;;;8.80;92.71;99430.53;4266206;82;21005;-84
2022/10/31 20:30:12;;;;;;;31.57;19.98;;;;;;;8.83;94.15;99435.28;4229648;82;21947;-84
2022/10/31 20:36:18;;;;;;;39.70;22.93;;;;;;;8.92;93.90;99440.02;4201574;83;21474;-84
2022/10/31 20:42:20;;;;;;;56.35;29.10;;;;;;;8.91;93.50;99437.05;4203741;84;21004;-84
2022/10/31 20:48:24;;;;;;;45.03;27.05;;;;;;;8.71;92.97;99437.30;4219718;83;21003;-84
2022/10/31 20:54:28;;;;;;;53.90;28.98;;;;;;;8.51;93.40;99428.23;4205058;84;21017;-83
2022/10/31 21:00:31;;;;;;;55.17;27.50;;;;;;;8.41;93.73;99432.06;4206491;83;20950;-83
2022/10/31 21:06:34;;;;;;;54.75;31.20;;;;;;;8.36;94.21;99429.59;4212580;83;21621;-84
2022/10/31 21:12:35;;;;;;;58.35;30.85;;;;;;;8.29;94.65;99428.82;4209526;83;21800;-84
2022/10/31 21:18:39;;;;;;;65.08;34.70;;;;;;;8.27;94.61;99429.73;4214435;83;21963;-84
2022/10/31 21:24:41;;;;;;;53.17;29.18;;;;;;;8.18;94.59;99430.44;4221449;84;21044;-84
2022/10/31 21:30:47;;;;;;;54.27;30.00;;;;;;;8.03;94.54;99422.42;4198861;83;21925;-84
2022/10/31 21:37:26;;;;;;;59.63;30.87;;;;;;;7.93;94.79;99416.69;4219218;83;20971;-84
2022/10/31 21:43:38;;;;;;;49.55;26.02;;;;;;;7.84;95.12;99405.14;4228222;82;22280;-84
2022/10/31 21:49:40;;;;;;;50.65;27.20;;;;;;;7.78;95.47;99402.45;4113701;81;10000177;-83
2022/10/31 21:55:42;;;;;;;38.35;21.27;;;;;;;7.73;95.81;99402.69;4201094;83;21708;-83
2022/10/31 22:01:43;;;;;;;45.95;23.85;;;;;;;7.81;97.25;99392.21;4143561;83;21936;-83
2022/10/31 22:07:48;;;;;;;47.75;28.70;;;;;;;7.87;96.31;99388.90;4224264;84;21097;-83
2022/10/31 22:13:51;;;;;;;55.35;29.63;;;;;;;7.72;95.84;99387.48;4228093;82;21091;-83
2022/10/31 22:19:55;;;;;;;52.83;27.27;;;;;;;7.63;95.96;99391.70;4312977;81;21040;-83
2022/10/31 22:26:08;;;;;;;53.65;29.23;;;;;;;7.48;96.10;99388.91;4205622;83;21033;-85
2022/10/31 22:32:10;;;;;;;51.73;29.12;;;;;;;7.38;96.28;99377.92;4196298;83;21889;-83
2022/10/31 22:38:13;;;;;;;58.60;29.40;;;;;;;7.35;96.56;99375.89;4173683;83;20978;-83
2022/10/31 22:44:16;;;;;;;48.95;26.73;;;;;;;7.23;96.65;99370.48;4110613;83;20954;-83
2022/10/31 22:50:19;;;;;;;56.40;29.07;;;;;;;7.18;96.83;99359.02;4158457;84;21005;-84
2022/10/31 22:56:29;;;;;;;43.58;25.23;;;;;;;7.13;96.90;99357.33;4170310;83;21653;-83
2022/10/31 23:02:31;;;;;;;47.53;26.15;;;;;;;7.11;97.41;99356.88;4174709;83;21049;-85
2022/10/31 23:08:35;;;;;;;48.23;28.17;;;;;;;7.09;97.28;99351.00;4177144;83;21644;-84
2022/10/31 23:14:38;;;;;;;47.17;26.55;;;;;;;7.04;97.12;99355.88;4155788;84;20997;-83
2022/10/31 23:20:40;;;;;;;43.52;26.35;;;;;;;7.04;97.50;99347.14;4176169;83;20971;-84
2022/10/31 23:33:05;;;;;;;52.25;28.10;;;;;;;6.83;97.31;99323.94;4207677;83;21025;-83
2022/10/31 23:39:06;;;;;;;46.53;27.25;;;;;;;6.72;97.43;99318.73;4114704;83;21482;-83
2022/10/31 23:45:08;;;;;;;58.85;30.20;;;;;;;6.75;98.25;99313.97;4203197;83;21641;-83
2022/10/31 23:51:09;;;;;;;52.40;30.75;;;;;;;6.72;97.84;99313.29;4188467;83;21387;-84
2022/10/31 23:57:15;;;;;;;45.83;27.02;;;;;;;6.47;97.04;99296.17;4175216;83;22341;-85
